Time,TemperatureF,DewpointF,PressureIn,WindDirection,WindDirectionDegrees,WindSpeedMPH,WindSpeedGustMPH,Humidity,HourlyPrecipIn,Conditions,Clouds,dailyrainin,SoftwareType,DateUTC
2013-03-18 00:02:00,18.9,8.4,30.31,NW,323,0.0,0.0,63,0.00,,,0.00,Wunderground v.1.15,2013-03-18 04:02:00,
2013-03-18 00:07:00,18.9,8.4,30.31,NW,323,0.0,0.0,63,0.00,,,0.00,Wunderground v.1.15,2013-03-18 04:07:00,
2013-03-18 00:12:00,18.8,7.9,30.31,NW,323,0.0,0.0,62,0.00,,,0.00,Wunderground v.1.15,2013-03-18 04:12:00,
2013-03-18 00:17:00,18.8,7.6,30.31,NW,323,0.0,0.0,61,0.00,,,0.00,Wunderground v.1.15,2013-03-18 04:17:00,
2013-03-18 00:22:00,18.6,7.4,30.31,NW,323,0.0,0.0,61,0.00,,,0.00,Wunderground v.1.15,2013-03-18 04:22:00,
2013-03-18 00:32:00,18.4,7.2,30.32,NW,323,0.0,0.0,61,0.00,,,0.00,Wunderground v.1.15,2013-03-18 04:32:00,
2013-03-18 00:37:00,18.4,7.5,30.32,NW,323,0.0,0.0,62,0.00,,,0.00,Wunderground v.1.15,2013-03-18 04:37:00,
2013-03-18 00:47:00,18.1,7.3,30.32,NW,323,0.0,0.0,62,0.00,,,0.00,Wunderground v.1.15,2013-03-18 04:47:00,
2013-03-18 00:52:00,18.1,7.3,30.32,NW,323,0.0,0.0,62,0.00,,,0.00,Wunderground v.1.15,2013-03-18 04:52:00,
2013-03-18 00:57:00,18.0,7.5,30.32,NW,323,0.0,0.0,63,0.00,,,0.00,Wunderground v.1.15,2013-03-18 04:57:00,
2013-03-18 01:02:00,17.8,7.3,30.32,NW,323,0.0,0.0,63,0.00,,,0.00,Wunderground v.1.15,2013-03-18 05:02:00,
2013-03-18 01:08:00,17.7,7.6,30.32,NW,323,0.0,0.0,64,0.00,,,0.00,Wunderground v.1.15,2013-03-18 05:08:00,
2013-03-18 01:17:00,17.7,7.9,30.31,NW,323,0.0,0.0,65,0.00,,,0.00,Wunderground v.1.15,2013-03-18 05:17:00,
2013-03-18 01:22:00,17.5,7.7,30.31,NW,323,0.0,0.0,65,0.00,,,0.00,Wunderground v.1.15,2013-03-18 05:22:00,
2013-03-18 01:32:00,17.7,8.6,30.31,NW,323,0.0,0.0,67,0.00,,,0.00,Wunderground v.1.15,2013-03-18 05:32:00,
2013-03-18 01:37:00,17.7,8.6,30.31,NW,323,0.0,0.0,67,0.00,,,0.00,Wunderground v.1.15,2013-03-18 05:37:00,
2013-03-18 01:47:00,17.5,8.4,30.30,NW,323,0.0,0.0,67,0.00,,,0.00,Wunderground v.1.15,2013-03-18 05:47:00,
2013-03-18 01:52:00,17.5,8.7,30.30,NW,323,0.0,0.0,68,0.00,,,0.00,Wunderground v.1.15,2013-03-18 05:52:00,
2013-03-18 02:02:00,18.0,9.2,30.31,NW,323,0.0,0.0,68,0.00,,,0.00,Wunderground v.1.15,2013-03-18 06:02:00,
2013-03-18 02:08:00,18.3,9.2,30.31,NW,323,0.0,0.0,67,0.00,,,0.00,Wunderground v.1.15,2013-03-18 06:08:00,
2013-03-18 02:17:00,18.4,9.3,30.31,NW,323,0.0,0.0,67,0.00,,,0.00,Wunderground v.1.15,2013-03-18 06:17:00,
2013-03-18 02:23:00,18.6,9.1,30.31,NW,323,0.0,0.0,66,0.00,,,0.00,Wunderground v.1.15,2013-03-18 06:23:00,
2013-03-18 02:32:00,19.2,9.0,30.30,NW,323,0.0,0.0,64,0.00,,,0.00,Wunderground v.1.15,2013-03-18 06:32:00,
2013-03-18 02:38:00,19.5,8.9,30.30,NW,323,0.0,0.0,63,0.00,,,0.00,Wunderground v.1.15,2013-03-18 06:38:00,
2013-03-18 02:47:00,19.4,8.8,30.30,NW,323,0.0,0.0,63,0.00,,,0.00,Wunderground v.1.15,2013-03-18 06:47:00,
2013-03-18 02:52:00,19.1,8.6,30.30,NW,323,0.0,0.0,63,0.00,,,0.00,Wunderground v.1.15,2013-03-18 06:52:00,
2013-03-18 03:02:00,18.8,8.6,30.29,NW,323,0.0,0.0,64,0.00,,,0.00,Wunderground v.1.15,2013-03-18 07:02:00,
2013-03-18 03:07:00,18.6,8.4,30.29,NW,323,0.0,0.0,64,0.00,,,0.00,Wunderground v.1.15,2013-03-18 07:07:00,
2013-03-18 03:12:00,18.4,8.2,30.29,NW,323,0.0,0.0,64,0.00,,,0.00,Wunderground v.1.15,2013-03-18 07:12:00,
2013-03-18 03:22:00,18.1,8.6,30.28,NW,323,0.0,0.0,66,0.00,,,0.00,Wunderground v.1.15,2013-03-18 07:22:00,
2013-03-18 03:32:00,18.0,8.9,30.28,NW,323,0.0,0.0,67,0.00,,,0.00,Wunderground v.1.15,2013-03-18 07:32:00,
2013-03-18 03:37:00,18.0,8.9,30.28,NW,323,0.0,0.0,67,0.00,,,0.00,Wunderground v.1.15,2013-03-18 07:37:00,
2013-03-18 03:47:00,18.1,8.6,30.27,NW,323,0.0,0.0,66,0.00,,,0.00,Wunderground v.1.15,2013-03-18 07:47:00,
2013-03-18 03:52:00,18.6,8.8,30.27,NW,323,0.0,0.0,65,0.00,,,0.00,Wunderground v.1.15,2013-03-18 07:52:00,
2013-03-18 04:02:00,19.1,8.9,30.27,NW,323,0.0,0.0,64,0.00,,,0.00,Wunderground v.1.15,2013-03-18 08:02:00,
2013-03-18 04:12:00,19.7,8.0,30.27,NW,323,0.0,1.0,60,0.00,,,0.00,Wunderground v.1.15,2013-03-18 08:12:00,
2013-03-18 04:22:00,20.2,8.1,30.27,NW,323,0.0,1.0,59,0.00,,,0.00,Wunderground v.1.15,2013-03-18 08:22:00,
2013-03-18 04:32:00,20.2,8.1,30.27,NW,323,0.0,0.0,59,0.00,,,0.00,Wunderground v.1.15,2013-03-18 08:32:00,
2013-03-18 04:37:00,20.0,8.3,30.27,NNW,329,0.0,0.0,60,0.00,,,0.00,Wunderground v.1.15,2013-03-18 08:37:00,
2013-03-18 04:47:00,20.0,8.0,30.28,NNW,336,0.0,0.0,59,0.00,,,0.00,Wunderground v.1.15,2013-03-18 08:47:00,
2013-03-18 04:52:00,20.2,8.1,30.28,NNE,17,1.0,2.0,59,0.00,,,0.00,Wunderground v.1.15,2013-03-18 08:52:00,
2013-03-18 05:02:00,20.5,8.4,30.27,ENE,75,2.0,2.0,59,0.00,,,0.00,Wunderground v.1.15,2013-03-18 09:02:00,
2013-03-18 05:07:00,20.6,8.5,30.27,ENE,75,1.0,2.0,59,0.00,,,0.00,Wunderground v.1.15,2013-03-18 09:07:00,
2013-03-18 05:12:00,20.8,8.3,30.27,East,86,1.0,2.0,58,0.00,,,0.00,Wunderground v.1.15,2013-03-18 09:12:00,
2013-03-18 05:22:00,21.0,8.9,30.28,ESE,113,1.0,1.0,59,0.00,,,0.00,Wunderground v.1.15,2013-03-18 09:22:00,
2013-03-18 05:32:00,21.0,8.9,30.29,SE,145,2.0,4.0,59,0.00,,,0.00,Wunderground v.1.15,2013-03-18 09:32:00,
2013-03-18 05:37:00,21.0,9.3,30.29,SE,145,2.0,4.0,60,0.00,,,0.00,Wunderground v.1.15,2013-03-18 09:37:00,
2013-03-18 05:47:00,21.0,9.6,30.29,SE,145,1.0,2.0,61,0.00,,,0.00,Wunderground v.1.15,2013-03-18 09:47:00,
2013-03-18 05:52:00,20.8,9.5,30.29,SE,145,1.0,1.0,61,0.00,,,0.00,Wunderground v.1.15,2013-03-18 09:52:00,
2013-03-18 06:02:00,20.8,9.8,30.29,SE,145,1.0,1.0,62,0.00,,,0.00,Wunderground v.1.15,2013-03-18 10:02:00,
2013-03-18 06:12:00,20.8,10.2,30.29,SE,145,1.0,1.0,63,0.00,,,0.00,Wunderground v.1.15,2013-03-18 10:12:00,
2013-03-18 06:22:00,20.8,10.5,30.29,SE,145,1.0,1.0,64,0.00,,,0.00,Wunderground v.1.15,2013-03-18 10:22:00,
2013-03-18 06:32:00,20.8,10.5,30.29,South,169,1.0,5.0,64,0.00,,,0.00,Wunderground v.1.15,2013-03-18 10:32:00,
2013-03-18 06:37:00,20.8,10.5,30.29,South,169,1.0,5.0,64,0.00,,,0.00,Wunderground v.1.15,2013-03-18 10:37:00,
2013-03-18 06:47:00,20.8,10.9,30.29,South,169,1.0,2.0,65,0.00,,,0.00,Wunderground v.1.15,2013-03-18 10:47:00,
2013-03-18 06:52:00,20.8,10.9,30.29,South,169,1.0,2.0,65,0.00,,,0.00,Wunderground v.1.15,2013-03-18 10:52:00,
2013-03-18 07:08:00,20.5,10.9,30.29,South,169,1.0,2.0,66,0.00,,,0.00,Wunderground v.1.15,2013-03-18 11:08:00,
2013-03-18 07:17:00,20.3,11.1,30.29,South,169,1.0,2.0,67,0.00,,,0.00,Wunderground v.1.15,2013-03-18 11:17:00,
2013-03-18 07:22:00,20.3,11.1,30.29,South,169,2.0,2.0,67,0.00,,,0.00,Wunderground v.1.15,2013-03-18 11:22:00,
2013-03-18 07:32:00,20.2,11.3,30.29,SSE,151,2.0,2.0,68,0.00,,,0.00,Wunderground v.1.15,2013-03-18 11:32:00,
2013-03-18 07:37:00,20.2,11.3,30.29,SSE,151,2.0,2.0,68,0.00,,,0.00,Wunderground v.1.15,2013-03-18 11:37:00,
2013-03-18 07:47:00,20.2,11.3,30.29,SSE,151,1.0,3.0,68,0.00,,,0.00,Wunderground v.1.15,2013-03-18 11:47:00,
2013-03-18 07:52:00,20.5,11.9,30.29,SSE,151,2.0,5.0,69,0.00,,,0.00,Wunderground v.1.15,2013-03-18 11:52:00,
2013-03-18 08:02:00,20.6,11.7,30.28,SSE,151,3.0,6.0,68,0.00,,,0.00,Wunderground v.1.15,2013-03-18 12:02:00,
2013-03-18 08:08:00,21.0,12.1,30.28,ESE,107,3.0,6.0,68,0.00,,,0.00,Wunderground v.1.15,2013-03-18 12:08:00,
2013-03-18 08:17:00,21.3,12.0,30.27,East,97,3.0,4.0,67,0.00,,,0.00,Wunderground v.1.15,2013-03-18 12:17:00,
2013-03-18 08:22:00,21.6,12.3,30.27,ESE,112,4.0,5.0,67,0.00,,,0.00,Wunderground v.1.15,2013-03-18 12:22:00,
2013-03-18 08:32:00,22.1,11.8,30.27,SE,145,3.0,6.0,64,0.00,,,0.00,Wunderground v.1.15,2013-03-18 12:32:00,
2013-03-18 08:37:00,22.4,11.3,30.27,SSE,158,4.0,6.0,62,0.00,,,0.00,Wunderground v.1.15,2013-03-18 12:37:00,
2013-03-18 08:47:00,22.9,11.4,30.25,East,90,5.0,8.0,61,0.00,,,0.00,Wunderground v.1.15,2013-03-18 12:47:00,
2013-03-18 08:52:00,23.0,11.5,30.25,ESE,120,4.0,4.0,61,0.00,,,0.00,Wunderground v.1.15,2013-03-18 12:52:00,
2013-03-18 09:02:00,23.3,11.8,30.23,ESE,109,5.0,5.0,61,0.00,,,0.00,Wunderground v.1.15,2013-03-18 13:02:00,
2013-03-18 09:07:00,23.6,11.7,30.23,SE,144,5.0,6.0,60,0.00,,,0.00,Wunderground v.1.15,2013-03-18 13:07:00,
2013-03-18 09:12:00,23.9,12.0,30.23,SSE,155,5.0,5.0,60,0.00,,,0.00,Wunderground v.1.15,2013-03-18 13:12:00,
2013-03-18 09:22:00,24.5,11.4,30.23,ESE,120,4.0,5.0,57,0.00,,,0.00,Wunderground v.1.15,2013-03-18 13:22:00,
2013-03-18 09:32:00,24.8,10.1,30.22,East,92,5.0,6.0,53,0.00,,,0.00,Wunderground v.1.15,2013-03-18 13:32:00,
2013-03-18 09:38:00,25.3,9.7,30.22,East,99,5.0,6.0,51,0.00,,,0.00,Wunderground v.1.15,2013-03-18 13:38:00,
2013-03-18 09:47:00,25.8,9.2,30.21,ESE,102,6.0,8.0,49,0.00,,,0.00,Wunderground v.1.15,2013-03-18 13:47:00,
2013-03-18 09:52:00,26.0,8.5,30.21,SSE,147,7.0,7.0,47,0.00,,,0.00,Wunderground v.1.15,2013-03-18 13:52:00,
2013-03-18 10:02:00,26.3,7.8,30.20,SE,126,7.0,7.0,45,0.00,,,0.00,Wunderground v.1.15,2013-03-18 14:02:00,
2013-03-18 10:12:00,26.9,8.8,30.20,ESE,104,5.0,6.0,46,0.00,,,0.00,Wunderground v.1.15,2013-03-18 14:12:00,
2013-03-18 10:22:00,27.2,9.1,30.20,SSE,161,5.0,5.0,46,0.00,,,0.00,Wunderground v.1.15,2013-03-18 14:22:00,
2013-03-18 10:32:00,27.2,8.6,30.19,SE,144,6.0,6.0,45,0.00,,,0.00,Wunderground v.1.15,2013-03-18 14:32:00,
2013-03-18 10:37:00,27.3,8.7,30.19,SSE,168,6.0,6.0,45,0.00,,,0.00,Wunderground v.1.15,2013-03-18 14:37:00,
2013-03-18 10:47:00,27.8,9.7,30.19,East,85,4.0,9.0,46,0.00,,,0.00,Wunderground v.1.15,2013-03-18 14:47:00,
2013-03-18 10:52:00,28.1,10.4,30.19,ENE,75,5.0,7.0,47,0.00,,,0.00,Wunderground v.1.15,2013-03-18 14:52:00,
2013-03-18 11:02:00,28.1,9.9,30.18,ESE,110,6.0,6.0,46,0.00,,,0.00,Wunderground v.1.15,2013-03-18 15:02:00,
2013-03-18 11:07:00,28.1,9.5,30.18,ESE,119,6.0,8.0,45,0.00,,,0.00,Wunderground v.1.15,2013-03-18 15:07:00,
2013-03-18 11:17:00,28.4,9.2,30.17,East,90,6.0,7.0,44,0.00,,,0.00,Wunderground v.1.15,2013-03-18 15:17:00,
2013-03-18 11:23:00,28.4,9.2,30.17,East,82,7.0,7.0,44,0.00,,,0.00,Wunderground v.1.15,2013-03-18 15:23:00,
2013-03-18 11:32:00,28.8,9.1,30.16,East,90,5.0,7.0,43,0.00,,,0.00,Wunderground v.1.15,2013-03-18 15:32:00,
2013-03-18 11:37:00,29.1,8.8,30.16,East,93,6.0,6.0,42,0.00,,,0.00,Wunderground v.1.15,2013-03-18 15:37:00,
2013-03-18 11:47:00,29.4,8.6,30.15,East,89,6.0,6.0,41,0.00,,,0.00,Wunderground v.1.15,2013-03-18 15:47:00,
2013-03-18 11:52:00,29.5,8.7,30.15,East,90,7.0,7.0,41,0.00,,,0.00,Wunderground v.1.15,2013-03-18 15:52:00,
2013-03-18 12:02:00,30.1,8.7,30.14,East,82,6.0,7.0,40,0.00,,,0.00,Wunderground v.1.15,2013-03-18 16:02:00,
2013-03-18 12:07:00,30.4,8.4,30.14,East,92,6.0,7.0,39,0.00,,,0.00,Wunderground v.1.15,2013-03-18 16:07:00,
2013-03-18 12:17:00,31.0,8.9,30.13,East,96,5.0,5.0,39,0.00,,,0.00,Wunderground v.1.15,2013-03-18 16:17:00,
2013-03-18 12:22:00,31.2,8.5,30.13,SE,136,6.0,6.0,38,0.00,,,0.00,Wunderground v.1.15,2013-03-18 16:22:00,
2013-03-18 12:32:00,31.5,8.2,30.13,ENE,78,5.0,11.0,37,0.00,,,0.00,Wunderground v.1.15,2013-03-18 16:32:00,
2013-03-18 12:37:00,31.3,8.6,30.13,ESE,121,7.0,11.0,38,0.00,,,0.00,Wunderground v.1.15,2013-03-18 16:37:00,
2013-03-18 12:47:00,31.6,8.9,30.11,East,90,5.0,11.0,38,0.00,,,0.00,Wunderground v.1.15,2013-03-18 16:47:00,
2013-03-18 12:52:00,31.6,8.9,30.11,SE,126,7.0,14.0,38,0.00,,,0.00,Wunderground v.1.15,2013-03-18 16:52:00,
2013-03-18 13:02:00,31.5,8.2,30.10,SE,133,9.0,9.0,37,0.00,,,0.00,Wunderground v.1.15,2013-03-18 17:02:00,
2013-03-18 13:07:00,31.8,10.2,30.10,SE,141,8.0,11.0,40,0.00,,,0.00,Wunderground v.1.15,2013-03-18 17:07:00,
2013-03-18 13:17:00,32.4,9.6,30.09,SE,131,6.0,6.0,38,0.00,,,0.00,Wunderground v.1.15,2013-03-18 17:17:00,
2013-03-18 13:22:00,32.7,9.8,30.09,East,89,6.0,9.0,38,0.00,,,0.00,Wunderground v.1.15,2013-03-18 17:22:00,
2013-03-18 13:32:00,32.5,9.7,30.09,ESE,109,8.0,8.0,38,0.00,,,0.00,Wunderground v.1.15,2013-03-18 17:32:00,
2013-03-18 13:37:00,32.7,10.4,30.09,East,97,8.0,8.0,39,0.00,,,0.00,Wunderground v.1.15,2013-03-18 17:37:00,
2013-03-18 13:47:00,33.2,11.5,30.07,East,83,5.0,11.0,40,0.00,,,0.00,Wunderground v.1.15,2013-03-18 17:47:00,
2013-03-18 13:52:00,33.2,11.5,30.07,ENE,76,6.0,6.0,40,0.00,,,0.00,Wunderground v.1.15,2013-03-18 17:52:00,
2013-03-18 14:02:00,33.4,11.6,30.07,SSE,147,7.0,8.0,40,0.00,,,0.00,Wunderground v.1.15,2013-03-18 18:02:00,
2013-03-18 14:07:00,33.2,12.0,30.07,East,97,7.0,8.0,41,0.00,,,0.00,Wunderground v.1.15,2013-03-18 18:07:00,
2013-03-18 14:12:00,33.2,12.0,30.07,ENE,72,7.0,8.0,41,0.00,,,0.00,Wunderground v.1.15,2013-03-18 18:12:00,
2013-03-18 14:22:00,33.5,12.3,30.06,SSE,148,5.0,6.0,41,0.00,,,0.00,Wunderground v.1.15,2013-03-18 18:22:00,
2013-03-18 14:32:00,33.8,13.1,30.05,ESE,106,6.0,6.0,42,0.00,,,0.00,Wunderground v.1.15,2013-03-18 18:32:00,
2013-03-18 14:37:00,33.8,12.6,30.05,East,97,6.0,6.0,41,0.00,,,0.00,Wunderground v.1.15,2013-03-18 18:37:00,
2013-03-18 14:47:00,34.0,13.3,30.04,SE,127,6.0,7.0,42,0.00,,,0.00,Wunderground v.1.15,2013-03-18 18:47:00,
2013-03-18 14:52:00,34.1,12.8,30.04,East,80,6.0,6.0,41,0.00,,,0.00,Wunderground v.1.15,2013-03-18 18:52:00,
2013-03-18 15:02:00,34.4,13.1,30.02,SE,140,5.0,5.0,41,0.00,,,0.00,Wunderground v.1.15,2013-03-18 19:02:00,
2013-03-18 15:07:00,34.6,12.7,30.02,ESE,110,5.0,12.0,40,0.00,,,0.00,Wunderground v.1.15,2013-03-18 19:07:00,
2013-03-18 15:17:00,34.4,12.5,30.01,SE,138,9.0,11.0,40,0.00,,,0.01,Wunderground v.1.15,2013-03-18 19:17:00,
2013-03-18 15:23:00,34.4,13.1,30.01,ENE,61,9.0,9.0,41,0.00,,,0.01,Wunderground v.1.15,2013-03-18 19:23:00,
2013-03-18 15:32:00,33.7,17.0,30.00,SSE,161,9.0,20.0,50,0.00,,,0.01,Wunderground v.1.15,2013-03-18 19:32:00,
2013-03-18 15:38:00,32.9,19.3,30.00,ESE,103,8.0,16.0,57,0.00,,,0.01,Wunderground v.1.15,2013-03-18 19:38:00,
2013-03-18 15:47:00,31.2,21.5,30.00,SSE,152,9.0,16.0,67,0.00,,,0.01,Wunderground v.1.15,2013-03-18 19:47:00,
2013-03-18 15:52:00,30.6,23.0,30.00,SSE,154,8.0,8.0,73,0.00,,,0.01,Wunderground v.1.15,2013-03-18 19:52:00,
2013-03-18 16:02:00,30.0,24.0,29.99,ESE,120,8.0,10.0,78,0.00,,,0.01,Wunderground v.1.15,2013-03-18 20:02:00,
2013-03-18 16:07:00,29.8,24.1,29.99,SSE,148,8.0,10.0,79,0.00,,,0.01,Wunderground v.1.15,2013-03-18 20:07:00,
2013-03-18 16:17:00,29.5,24.4,29.98,SE,124,9.0,9.0,81,0.00,,,0.01,Wunderground v.1.15,2013-03-18 20:17:00,
2013-03-18 16:22:00,29.4,24.9,29.98,ESE,117,8.0,8.0,83,0.00,,,0.01,Wunderground v.1.15,2013-03-18 20:22:00,
2013-03-18 16:32:00,29.4,25.2,29.97,SE,136,8.0,8.0,84,0.00,,,0.01,Wunderground v.1.15,2013-03-18 20:32:00,
2013-03-18 16:37:00,29.3,25.4,29.97,ESE,121,8.0,8.0,85,0.00,,,0.01,Wunderground v.1.15,2013-03-18 20:37:00,
2013-03-18 16:47:00,29.3,25.4,29.96,SE,133,7.0,12.0,85,0.00,,,0.01,Wunderground v.1.15,2013-03-18 20:47:00,
2013-03-18 16:52:00,29.3,25.6,29.96,South,178,6.0,6.0,86,0.00,,,0.01,Wunderground v.1.15,2013-03-18 20:52:00,
2013-03-18 17:02:00,29.1,25.4,29.95,SSE,148,8.0,8.0,86,0.00,,,0.01,Wunderground v.1.15,2013-03-18 21:02:00,
2013-03-18 17:07:00,29.1,25.4,29.95,SE,138,8.0,8.0,86,0.00,,,0.01,Wunderground v.1.15,2013-03-18 21:07:00,
2013-03-18 17:12:00,29.0,25.3,29.95,SE,141,7.0,7.0,86,0.00,,,0.01,Wunderground v.1.15,2013-03-18 21:12:00,
2013-03-18 17:22:00,28.8,25.1,29.94,SSE,148,8.0,8.0,86,0.00,,,0.01,Wunderground v.1.15,2013-03-18 21:22:00,
2013-03-18 17:32:00,28.7,25.0,29.92,SE,131,8.0,8.0,86,0.00,,,0.01,Wunderground v.1.15,2013-03-18 21:32:00,
2013-03-18 17:37:00,28.5,24.6,29.92,East,93,9.0,9.0,85,0.00,,,0.01,Wunderground v.1.15,2013-03-18 21:37:00,
2013-03-18 17:47:00,28.5,24.6,29.91,SSE,161,8.0,16.0,85,0.00,,,0.01,Wunderground v.1.15,2013-03-18 21:47:00,
2013-03-18 17:52:00,28.4,24.5,29.91,ESE,112,9.0,9.0,85,0.00,,,0.01,Wunderground v.1.15,2013-03-18 21:52:00,
2013-03-18 18:02:00,28.4,24.5,29.90,SSE,148,8.0,8.0,85,0.00,,,0.01,Wunderground v.1.15,2013-03-18 22:02:00,
2013-03-18 18:07:00,28.4,24.5,29.90,SE,131,7.0,8.0,85,0.00,,,0.01,Wunderground v.1.15,2013-03-18 22:07:00,
2013-03-18 18:17:00,28.5,24.3,29.89,SSE,147,8.0,16.0,84,0.00,,,0.01,Wunderground v.1.15,2013-03-18 22:17:00,
2013-03-18 18:23:00,28.5,24.0,29.89,South,169,9.0,9.0,83,0.00,,,0.01,Wunderground v.1.15,2013-03-18 22:23:00,
2013-03-18 18:32:00,28.7,23.9,29.88,SE,138,9.0,13.0,82,0.00,,,0.01,Wunderground v.1.15,2013-03-18 22:32:00,
2013-03-18 18:37:00,28.7,23.6,29.88,SE,145,9.0,9.0,81,0.00,,,0.01,Wunderground v.1.15,2013-03-18 22:37:00,
2013-03-18 18:47:00,28.7,23.6,29.89,South,185,8.0,11.0,81,0.00,,,0.01,Wunderground v.1.15,2013-03-18 22:47:00,
2013-03-18 18:52:00,28.8,23.7,29.89,SE,134,9.0,11.0,81,0.00,,,0.01,Wunderground v.1.15,2013-03-18 22:52:00,
2013-03-18 19:02:00,28.8,23.7,29.88,SE,131,9.0,9.0,81,0.00,,,0.01,Wunderground v.1.15,2013-03-18 23:02:00,
2013-03-18 19:12:00,29.0,23.3,29.88,SSE,154,9.0,9.0,79,0.00,,,0.01,Wunderground v.1.15,2013-03-18 23:12:00,
2013-03-18 19:22:00,29.1,23.1,29.88,SSE,158,8.0,8.0,78,0.00,,,0.01,Wunderground v.1.15,2013-03-18 23:22:00,
2013-03-18 19:32:00,29.1,22.8,29.87,South,169,8.0,11.0,77,0.00,,,0.01,Wunderground v.1.15,2013-03-18 23:32:00,
2013-03-18 19:37:00,29.3,23.0,29.87,SE,134,8.0,11.0,77,0.00,,,0.01,Wunderground v.1.15,2013-03-18 23:37:00,
2013-03-18 19:47:00,29.3,23.0,29.86,SE,136,7.0,8.0,77,0.00,,,0.01,Wunderground v.1.15,2013-03-18 23:47:00,
2013-03-18 19:52:00,29.3,23.3,29.86,SE,138,6.0,10.0,78,0.00,,,0.01,Wunderground v.1.15,2013-03-18 23:52:00,
2013-03-18 20:02:00,29.0,23.3,29.85,SE,124,8.0,8.0,79,0.00,,,0.01,Wunderground v.1.15,2013-03-19 00:02:00,
2013-03-18 20:07:00,28.8,23.7,29.85,SE,136,8.0,8.0,81,0.00,,,0.01,Wunderground v.1.15,2013-03-19 00:07:00,
2013-03-18 20:17:00,28.7,23.9,29.84,SSE,160,7.0,11.0,82,0.00,,,0.01,Wunderground v.1.15,2013-03-19 00:17:00,
2013-03-18 20:23:00,28.7,24.2,29.84,ESE,116,7.0,7.0,83,0.00,,,0.01,Wunderground v.1.15,2013-03-19 00:23:00,
2013-03-18 20:32:00,28.4,24.5,29.83,SSE,164,6.0,6.0,85,0.00,,,0.01,Wunderground v.1.15,2013-03-19 00:32:00,
2013-03-18 20:42:00,28.4,25.0,29.83,SE,131,6.0,6.0,87,0.00,,,0.01,Wunderground v.1.15,2013-03-19 00:42:00,
2013-03-18 20:47:00,28.4,25.0,29.83,SE,141,6.0,6.0,87,0.00,,,0.01,Wunderground v.1.15,2013-03-19 00:47:00,
2013-03-18 20:52:00,28.4,25.3,29.83,ESE,110,7.0,7.0,88,0.00,,,0.01,Wunderground v.1.15,2013-03-19 00:52:00,
2013-03-18 21:02:00,28.5,25.4,29.82,SE,137,6.0,6.0,88,0.00,,,0.01,Wunderground v.1.15,2013-03-19 01:02:00,
2013-03-18 21:07:00,28.5,25.4,29.82,SSE,151,5.0,6.0,88,0.00,,,0.01,Wunderground v.1.15,2013-03-19 01:07:00,
2013-03-18 21:12:00,28.7,25.6,29.82,South,184,6.0,10.0,88,0.00,,,0.01,Wunderground v.1.15,2013-03-19 01:12:00,
2013-03-18 21:17:00,28.7,25.6,29.81,ESE,113,7.0,10.0,88,0.00,,,0.01,Wunderground v.1.15,2013-03-19 01:17:00,
2013-03-18 21:22:00,28.8,25.7,29.81,ESE,123,6.0,6.0,88,0.00,,,0.01,Wunderground v.1.15,2013-03-19 01:22:00,
2013-03-18 21:32:00,29.0,26.2,29.80,South,171,7.0,7.0,89,0.00,,,0.01,Wunderground v.1.15,2013-03-19 01:32:00,
2013-03-18 21:37:00,29.0,26.2,29.80,East,90,6.0,7.0,89,0.00,,,0.01,Wunderground v.1.15,2013-03-19 01:37:00,
2013-03-18 21:47:00,29.1,26.3,29.79,SSE,167,7.0,7.0,89,0.00,,,0.01,Wunderground v.1.15,2013-03-19 01:47:00,
2013-03-18 21:53:00,29.3,26.5,29.79,ESE,114,6.0,7.0,89,0.00,,,0.01,Wunderground v.1.15,2013-03-19 01:53:00,
2013-03-18 22:02:00,29.4,26.6,29.78,ESE,117,5.0,7.0,89,0.00,,,0.01,Wunderground v.1.15,2013-03-19 02:02:00,
2013-03-18 22:07:00,29.5,26.7,29.78,SE,126,5.0,7.0,89,0.00,,,0.01,Wunderground v.1.15,2013-03-19 02:07:00,
2013-03-18 22:17:00,29.5,26.7,29.77,ESE,110,5.0,5.0,89,0.00,,,0.01,Wunderground v.1.15,2013-03-19 02:17:00,
2013-03-18 22:22:00,29.7,26.9,29.77,SSE,148,6.0,6.0,89,0.00,,,0.01,Wunderground v.1.15,2013-03-19 02:22:00,
2013-03-18 22:32:00,29.7,26.9,29.75,SSE,150,6.0,6.0,89,0.00,,,0.01,Wunderground v.1.15,2013-03-19 02:32:00,
2013-03-18 22:37:00,29.7,26.9,29.75,East,96,5.0,6.0,89,0.00,,,0.01,Wunderground v.1.15,2013-03-19 02:37:00,
2013-03-18 22:47:00,30.0,27.2,29.75,East,86,5.0,5.0,89,0.00,,,0.01,Wunderground v.1.15,2013-03-19 02:47:00,
2013-03-18 22:52:00,30.1,27.3,29.75,SSE,151,6.0,6.0,89,0.00,,,0.01,Wunderground v.1.15,2013-03-19 02:52:00,
2013-03-18 23:02:00,30.3,27.4,29.73,East,99,5.0,5.0,89,0.00,,,0.01,Wunderground v.1.15,2013-03-19 03:02:00,
2013-03-18 23:07:00,30.3,27.4,29.73,SSE,158,4.0,6.0,89,0.00,,,0.01,Wunderground v.1.15,2013-03-19 03:07:00,
2013-03-18 23:17:00,30.6,27.7,29.72,ESE,123,6.0,6.0,89,0.00,,,0.01,Wunderground v.1.15,2013-03-19 03:17:00,
2013-03-18 23:23:00,30.7,27.8,29.72,SE,141,4.0,4.0,89,0.00,,,0.01,Wunderground v.1.15,2013-03-19 03:23:00,
2013-03-18 23:32:00,30.9,28.3,29.72,ESE,107,5.0,6.0,90,0.00,,,0.01,Wunderground v.1.15,2013-03-19 03:32:00,
2013-03-18 23:37:00,31.0,28.4,29.72,SE,138,5.0,5.0,90,0.00,,,0.01,Wunderground v.1.15,2013-03-19 03:37:00,
2013-03-18 23:47:00,31.3,28.7,29.70,SSE,164,5.0,5.0,90,0.00,,,0.01,Wunderground v.1.15,2013-03-19 03:47:00,
2013-03-18 23:52:00,31.5,28.9,29.70,SSE,155,5.0,5.0,90,0.00,,,0.01,Wunderground v.1.15,2013-03-19 03:52:00,